sensor_id;sensor_type;location;lat;lon;timestamp;temperature;humidity
5560;DHT22;2803;47.916;8.074;2022-09-01T00:00:04;17.90;99.90
5560;DHT22;2803;47.916;8.074;2022-09-01T00:02:33;17.90;99.90
5560;DHT22;2803;47.916;8.074;2022-09-01T00:05:00;18.00;99.90
5560;DHT22;2803;47.916;8.074;2022-09-01T00:07:29;18.10;99.90
5560;DHT22;2803;47.916;8.074;2022-09-01T00:09:57;17.10;99.90
5560;DHT22;2803;47.916;8.074;2022-09-01T00:12:25;16.90;99.90
5560;DHT22;2803;47.916;8.074;2022-09-01T00:14:53;16.40;99.90
5560;DHT22;2803;47.916;8.074;2022-09-01T00:17:20;16.10;99.90
5560;DHT22;2803;47.916;8.074;2022-09-01T00:19:46;16.10;99.90
5560;DHT22;2803;47.916;8.074;2022-09-01T00:22:13;16.00;99.90
5560;DHT22;2803;47.916;8.074;2022-09-01T00:24:40;16.00;99.90
5560;DHT22;2803;47.916;8.074;2022-09-01T00:27:08;16.10;99.90
5560;DHT22;2803;47.916;8.074;2022-09-01T00:29:35;15.90;99.90
5560;DHT22;2803;47.916;8.074;2022-09-01T00:32:02;15.70;99.90
5560;DHT22;2803;47.916;8.074;2022-09-01T00:34:28;16.00;99.90
5560;DHT22;2803;47.916;8.074;2022-09-01T00:36:55;15.80;99.90
5560;DHT22;2803;47.916;8.074;2022-09-01T00:39:22;15.90;99.90
5560;DHT22;2803;47.916;8.074;2022-09-01T00:41:48;15.90;99.90
5560;DHT22;2803;47.916;8.074;2022-09-01T00:44:20;16.00;99.90
5560;DHT22;2803;47.916;8.074;2022-09-01T00:46:52;15.80;99.90
5560;DHT22;2803;47.916;8.074;2022-09-01T00:49:23;15.70;99.90
5560;DHT22;2803;47.916;8.074;2022-09-01T00:51:54;15.60;99.90
5560;DHT22;2803;47.916;8.074;2022-09-01T00:54:25;15.20;99.90
5560;DHT22;2803;47.916;8.074;2022-09-01T00:56:53;15.00;99.90
5560;DHT22;2803;47.916;8.074;2022-09-01T00:59:22;15.20;99.90
5560;DHT22;2803;47.916;8.074;2022-09-01T01:01:49;15.80;99.90
5560;DHT22;2803;47.916;8.074;2022-09-01T01:04:16;15.70;99.90
5560;DHT22;2803;47.916;8.074;2022-09-01T01:06:45;15.90;99.90
5560;DHT22;2803;47.916;8.074;2022-09-01T01:09:15;15.80;99.90
5560;DHT22;2803;47.916;8.074;2022-09-01T01:11:41;16.00;99.90
5560;DHT22;2803;47.916;8.074;2022-09-01T01:14:09;16.00;99.90
5560;DHT22;2803;47.916;8.074;2022-09-01T01:16:39;16.40;99.90
5560;DHT22;2803;47.916;8.074;2022-09-01T01:19:14;16.30;99.90
5560;DHT22;2803;47.916;8.074;2022-09-01T01:22:08;16.50;99.90
5560;DHT22;2803;47.916;8.074;2022-09-01T01:24:51;16.30;99.90
5560;DHT22;2803;47.916;8.074;2022-09-01T01:27:17;16.50;99.90
5560;DHT22;2803;47.916;8.074;2022-09-01T01:29:46;16.80;99.90
5560;DHT22;2803;47.916;8.074;2022-09-01T01:32:13;16.90;99.90
5560;DHT22;2803;47.916;8.074;2022-09-01T01:34:39;16.90;99.90
5560;DHT22;2803;47.916;8.074;2022-09-01T01:37:07;16.80;99.90
5560;DHT22;2803;47.916;8.074;2022-09-01T01:39:36;16.90;99.90
5560;DHT22;2803;47.916;8.074;2022-09-01T01:42:06;17.00;99.90
5560;DHT22;2803;47.916;8.074;2022-09-01T01:44:35;17.20;99.90
5560;DHT22;2803;47.916;8.074;2022-09-01T01:47:04;17.30;99.90
5560;DHT22;2803;47.916;8.074;2022-09-01T01:49:35;17.30;99.90
5560;DHT22;2803;47.916;8.074;2022-09-01T01:52:02;17.30;99.90
5560;DHT22;2803;47.916;8.074;2022-09-01T01:54:30;16.90;99.90
5560;DHT22;2803;47.916;8.074;2022-09-01T01:56:57;17.00;99.90
5560;DHT22;2803;47.916;8.074;2022-09-01T01:59:25;16.80;99.90
5560;DHT22;2803;47.916;8.074;2022-09-01T02:01:54;16.10;99.90
5560;DHT22;2803;47.916;8.074;2022-09-01T02:04:21;16.30;99.90
5560;DHT22;2803;47.916;8.074;2022-09-01T02:06:49;16.40;99.90
5560;DHT22;2803;47.916;8.074;2022-09-01T02:09:19;16.60;99.90
5560;DHT22;2803;47.916;8.074;2022-09-01T02:11:47;16.80;99.90
5560;DHT22;2803;47.916;8.074;2022-09-01T02:14:18;16.90;99.90
5560;DHT22;2803;47.916;8.074;2022-09-01T02:16:47;16.70;99.90
5560;DHT22;2803;47.916;8.074;2022-09-01T02:19:15;16.50;99.90
5560;DHT22;2803;47.916;8.074;2022-09-01T02:21:45;16.20;99.90
5560;DHT22;2803;47.916;8.074;2022-09-01T02:24:20;16.30;99.90
5560;DHT22;2803;47.916;8.074;2022-09-01T02:26:48;16.50;99.90
5560;DHT22;2803;47.916;8.074;2022-09-01T02:29:17;16.50;99.90
5560;DHT22;2803;47.916;8.074;2022-09-01T02:31:49;16.50;99.90
5560;DHT22;2803;47.916;8.074;2022-09-01T02:34:18;16.70;99.90
5560;DHT22;2803;47.916;8.074;2022-09-01T02:36:46;16.80;99.90
5560;DHT22;2803;47.916;8.074;2022-09-01T02:39:14;16.70;99.90
5560;DHT22;2803;47.916;8.074;2022-09-01T02:41:41;16.50;99.90
5560;DHT22;2803;47.916;8.074;2022-09-01T02:44:08;15.70;99.90
5560;DHT22;2803;47.916;8.074;2022-09-01T02:46:37;15.10;99.90
5560;DHT22;2803;47.916;8.074;2022-09-01T02:49:07;15.10;99.90
5560;DHT22;2803;47.916;8.074;2022-09-01T02:51:40;15.10;99.90
5560;DHT22;2803;47.916;8.074;2022-09-01T02:54:07;15.30;99.90
5560;DHT22;2803;47.916;8.074;2022-09-01T02:56:34;15.10;99.90
5560;DHT22;2803;47.916;8.074;2022-09-01T02:59:01;15.00;99.90
5560;DHT22;2803;47.916;8.074;2022-09-01T03:01:30;15.30;99.90
5560;DHT22;2803;47.916;8.074;2022-09-01T03:03:59;15.90;99.90
5560;DHT22;2803;47.916;8.074;2022-09-01T03:06:28;15.80;99.90
5560;DHT22;2803;47.916;8.074;2022-09-01T03:08:57;16.10;99.90
5560;DHT22;2803;47.916;8.074;2022-09-01T03:11:25;16.40;99.90
5560;DHT22;2803;47.916;8.074;2022-09-01T03:13:53;16.40;99.90
5560;DHT22;2803;47.916;8.074;2022-09-01T03:16:20;16.20;99.90
5560;DHT22;2803;47.916;8.074;2022-09-01T03:18:47;16.40;99.90
5560;DHT22;2803;47.916;8.074;2022-09-01T03:21:15;16.10;99.90
5560;DHT22;2803;47.916;8.074;2022-09-01T03:23:44;16.20;99.90
5560;DHT22;2803;47.916;8.074;2022-09-01T03:26:13;16.30;99.90
5560;DHT22;2803;47.916;8.074;2022-09-01T03:28:43;16.40;99.90
5560;DHT22;2803;47.916;8.074;2022-09-01T03:31:09;16.20;99.90
5560;DHT22;2803;47.916;8.074;2022-09-01T03:33:36;16.40;99.90
5560;DHT22;2803;47.916;8.074;2022-09-01T03:36:04;15.80;99.90
5560;DHT22;2803;47.916;8.074;2022-09-01T03:38:30;15.30;99.90
5560;DHT22;2803;47.916;8.074;2022-09-01T03:41:02;15.10;99.90
5560;DHT22;2803;47.916;8.074;2022-09-01T03:43:30;15.00;99.90
5560;DHT22;2803;47.916;8.074;2022-09-01T03:45:58;14.90;99.90
5560;DHT22;2803;47.916;8.074;2022-09-01T03:48:26;15.40;99.90
5560;DHT22;2803;47.916;8.074;2022-09-01T03:50:55;15.70;99.90
5560;DHT22;2803;47.916;8.074;2022-09-01T03:53:28;15.50;99.90
5560;DHT22;2803;47.916;8.074;2022-09-01T03:55:55;15.80;99.90
5560;DHT22;2803;47.916;8.074;2022-09-01T03:58:26;15.90;99.90
5560;DHT22;2803;47.916;8.074;2022-09-01T04:00:55;16.00;99.90
5560;DHT22;2803;47.916;8.074;2022-09-01T04:03:26;15.80;99.90
5560;DHT22;2803;47.916;8.074;2022-09-01T04:05:54;15.60;99.90
5560;DHT22;2803;47.916;8.074;2022-09-01T04:08:22;16.00;99.90
5560;DHT22;2803;47.916;8.074;2022-09-01T04:10:57;16.10;99.90
5560;DHT22;2803;47.916;8.074;2022-09-01T04:13:28;15.70;99.90
5560;DHT22;2803;47.916;8.074;2022-09-01T04:15:56;15.10;99.90
5560;DHT22;2803;47.916;8.074;2022-09-01T04:18:23;15.00;99.90
5560;DHT22;2803;47.916;8.074;2022-09-01T04:20:50;15.00;99.90
5560;DHT22;2803;47.916;8.074;2022-09-01T04:23:20;14.80;99.90
5560;DHT22;2803;47.916;8.074;2022-09-01T04:25:52;15.00;99.90
5560;DHT22;2803;47.916;8.074;2022-09-01T04:28:20;14.50;99.90
5560;DHT22;2803;47.916;8.074;2022-09-01T04:30:54;14.40;99.90
5560;DHT22;2803;47.916;8.074;2022-09-01T04:33:23;14.40;99.90
5560;DHT22;2803;47.916;8.074;2022-09-01T04:35:51;14.50;99.90
5560;DHT22;2803;47.916;8.074;2022-09-01T04:38:19;14.10;99.90
5560;DHT22;2803;47.916;8.074;2022-09-01T04:40:46;13.60;99.90
5560;DHT22;2803;47.916;8.074;2022-09-01T04:43:13;13.90;99.90
5560;DHT22;2803;47.916;8.074;2022-09-01T04:45:41;14.10;99.90
5560;DHT22;2803;47.916;8.074;2022-09-01T04:48:09;13.80;99.90
5560;DHT22;2803;47.916;8.074;2022-09-01T04:50:39;13.70;99.90
5560;DHT22;2803;47.916;8.074;2022-09-01T04:53:06;13.70;99.90
5560;DHT22;2803;47.916;8.074;2022-09-01T04:55:37;13.90;99.90
5560;DHT22;2803;47.916;8.074;2022-09-01T04:58:09;14.00;99.90
5560;DHT22;2803;47.916;8.074;2022-09-01T05:00:37;13.90;99.90
5560;DHT22;2803;47.916;8.074;2022-09-01T05:03:05;14.10;99.90
5560;DHT22;2803;47.916;8.074;2022-09-01T05:05:38;14.20;99.90
5560;DHT22;2803;47.916;8.074;2022-09-01T05:08:07;14.40;99.90
5560;DHT22;2803;47.916;8.074;2022-09-01T05:10:38;15.00;99.90
5560;DHT22;2803;47.916;8.074;2022-09-01T05:13:06;15.40;99.90
5560;DHT22;2803;47.916;8.074;2022-09-01T05:15:35;15.80;99.90
5560;DHT22;2803;47.916;8.074;2022-09-01T05:18:03;15.60;99.90
5560;DHT22;2803;47.916;8.074;2022-09-01T05:20:37;15.90;99.90
5560;DHT22;2803;47.916;8.074;2022-09-01T05:23:08;15.80;99.90
5560;DHT22;2803;47.916;8.074;2022-09-01T05:25:39;16.10;99.90
5560;DHT22;2803;47.916;8.074;2022-09-01T05:28:06;15.80;99.90
5560;DHT22;2803;47.916;8.074;2022-09-01T05:30:34;15.60;99.90
5560;DHT22;2803;47.916;8.074;2022-09-01T05:33:03;15.80;99.90
5560;DHT22;2803;47.916;8.074;2022-09-01T05:35:36;15.60;99.90
5560;DHT22;2803;47.916;8.074;2022-09-01T05:38:05;16.00;99.90
5560;DHT22;2803;47.916;8.074;2022-09-01T05:40:35;16.30;99.90
5560;DHT22;2803;47.916;8.074;2022-09-01T05:43:06;16.30;99.90
5560;DHT22;2803;47.916;8.074;2022-09-01T05:45:35;16.50;99.90
5560;DHT22;2803;47.916;8.074;2022-09-01T05:48:03;16.70;99.90
5560;DHT22;2803;47.916;8.074;2022-09-01T05:50:30;17.10;99.90
5560;DHT22;2803;47.916;8.074;2022-09-01T05:52:58;16.90;99.90
5560;DHT22;2803;47.916;8.074;2022-09-01T05:55:24;17.00;99.90
5560;DHT22;2803;47.916;8.074;2022-09-01T05:57:52;17.00;99.90
5560;DHT22;2803;47.916;8.074;2022-09-01T06:00:19;17.00;99.90
5560;DHT22;2803;47.916;8.074;2022-09-01T06:02:47;16.80;99.90
5560;DHT22;2803;47.916;8.074;2022-09-01T06:05:13;16.60;99.90
5560;DHT22;2803;47.916;8.074;2022-09-01T06:07:40;17.00;99.90
5560;DHT22;2803;47.916;8.074;2022-09-01T06:10:10;17.20;99.90
5560;DHT22;2803;47.916;8.074;2022-09-01T06:12:37;16.90;99.90
5560;DHT22;2803;47.916;8.074;2022-09-01T06:15:04;16.50;99.90
5560;DHT22;2803;47.916;8.074;2022-09-01T06:17:40;16.50;99.90
5560;DHT22;2803;47.916;8.074;2022-09-01T06:20:09;16.70;99.90
5560;DHT22;2803;47.916;8.074;2022-09-01T06:22:36;17.20;99.90
5560;DHT22;2803;47.916;8.074;2022-09-01T06:25:04;17.10;99.90
5560;DHT22;2803;47.916;8.074;2022-09-01T06:27:34;16.70;99.90
5560;DHT22;2803;47.916;8.074;2022-09-01T06:30:06;16.40;99.90
5560;DHT22;2803;47.916;8.074;2022-09-01T06:32:39;17.00;99.90
5560;DHT22;2803;47.916;8.074;2022-09-01T06:35:08;17.10;99.90
5560;DHT22;2803;47.916;8.074;2022-09-01T06:37:36;17.20;99.90
5560;DHT22;2803;47.916;8.074;2022-09-01T06:40:04;17.10;99.90
5560;DHT22;2803;47.916;8.074;2022-09-01T06:42:31;16.90;99.90
5560;DHT22;2803;47.916;8.074;2022-09-01T06:45:00;17.00;99.90
5560;DHT22;2803;47.916;8.074;2022-09-01T06:47:27;17.60;99.90
5560;DHT22;2803;47.916;8.074;2022-09-01T06:49:54;17.90;99.90
5560;DHT22;2803;47.916;8.074;2022-09-01T06:52:24;18.00;99.90
5560;DHT22;2803;47.916;8.074;2022-09-01T06:54:51;18.20;99.90
5560;DHT22;2803;47.916;8.074;2022-09-01T06:57:19;18.30;99.90
5560;DHT22;2803;47.916;8.074;2022-09-01T06:59:47;18.00;99.90
5560;DHT22;2803;47.916;8.074;2022-09-01T07:02:15;17.80;99.90
5560;DHT22;2803;47.916;8.074;2022-09-01T07:04:44;17.70;99.90
5560;DHT22;2803;47.916;8.074;2022-09-01T07:07:11;17.40;99.90
5560;DHT22;2803;47.916;8.074;2022-09-01T07:09:38;17.30;99.90
5560;DHT22;2803;47.916;8.074;2022-09-01T07:12:05;17.70;99.90
5560;DHT22;2803;47.916;8.074;2022-09-01T07:14:32;16.70;99.90
5560;DHT22;2803;47.916;8.074;2022-09-01T07:16:58;17.00;99.90
5560;DHT22;2803;47.916;8.074;2022-09-01T07:19:26;17.20;99.90
5560;DHT22;2803;47.916;8.074;2022-09-01T07:21:53;17.20;99.90
5560;DHT22;2803;47.916;8.074;2022-09-01T07:24:20;17.50;99.90
5560;DHT22;2803;47.916;8.074;2022-09-01T07:26:47;17.90;99.90
5560;DHT22;2803;47.916;8.074;2022-09-01T07:29:16;18.10;99.90
5560;DHT22;2803;47.916;8.074;2022-09-01T07:31:47;18.00;99.90
5560;DHT22;2803;47.916;8.074;2022-09-01T07:34:14;18.00;99.90
5560;DHT22;2803;47.916;8.074;2022-09-01T07:36:43;18.30;99.90
5560;DHT22;2803;47.916;8.074;2022-09-01T07:39:13;18.50;99.90
5560;DHT22;2803;47.916;8.074;2022-09-01T07:41:40;18.00;99.90
5560;DHT22;2803;47.916;8.074;2022-09-01T07:44:08;18.20;99.90
5560;DHT22;2803;47.916;8.074;2022-09-01T07:46:40;18.30;99.90
5560;DHT22;2803;47.916;8.074;2022-09-01T07:49:07;17.90;99.90
5560;DHT22;2803;47.916;8.074;2022-09-01T07:51:33;17.90;99.90
5560;DHT22;2803;47.916;8.074;2022-09-01T07:54:02;17.80;99.90
5560;DHT22;2803;47.916;8.074;2022-09-01T07:56:29;17.80;99.90
5560;DHT22;2803;47.916;8.074;2022-09-01T07:58:56;18.30;99.90
5560;DHT22;2803;47.916;8.074;2022-09-01T08:01:24;18.80;99.90
5560;DHT22;2803;47.916;8.074;2022-09-01T08:03:53;18.90;99.90
5560;DHT22;2803;47.916;8.074;2022-09-01T08:06:22;19.00;99.90
5560;DHT22;2803;47.916;8.074;2022-09-01T08:08:51;19.10;99.90
5560;DHT22;2803;47.916;8.074;2022-09-01T08:11:23;19.10;99.90
5560;DHT22;2803;47.916;8.074;2022-09-01T08:13:50;19.30;99.90
5560;DHT22;2803;47.916;8.074;2022-09-01T08:16:18;19.50;99.90
5560;DHT22;2803;47.916;8.074;2022-09-01T08:18:46;18.70;99.90
5560;DHT22;2803;47.916;8.074;2022-09-01T08:21:15;18.80;99.90
5560;DHT22;2803;47.916;8.074;2022-09-01T08:23:41;19.10;99.90
5560;DHT22;2803;47.916;8.074;2022-09-01T08:26:10;19.40;99.90
5560;DHT22;2803;47.916;8.074;2022-09-01T08:28:39;19.60;99.90
5560;DHT22;2803;47.916;8.074;2022-09-01T08:31:07;19.80;99.90
5560;DHT22;2803;47.916;8.074;2022-09-01T08:33:35;19.70;99.90
5560;DHT22;2803;47.916;8.074;2022-09-01T08:36:02;19.20;99.90
5560;DHT22;2803;47.916;8.074;2022-09-01T08:38:29;19.20;99.90
5560;DHT22;2803;47.916;8.074;2022-09-01T08:40:57;18.80;99.90
5560;DHT22;2803;47.916;8.074;2022-09-01T08:43:33;18.90;99.90
5560;DHT22;2803;47.916;8.074;2022-09-01T08:46:08;19.40;99.90
5560;DHT22;2803;47.916;8.074;2022-09-01T08:48:40;19.30;99.90
5560;DHT22;2803;47.916;8.074;2022-09-01T08:51:13;19.60;99.90
5560;DHT22;2803;47.916;8.074;2022-09-01T08:53:45;19.70;99.90
5560;DHT22;2803;47.916;8.074;2022-09-01T08:56:14;20.30;99.90
5560;DHT22;2803;47.916;8.074;2022-09-01T08:58:42;20.60;99.90
5560;DHT22;2803;47.916;8.074;2022-09-01T09:01:15;20.80;99.90
5560;DHT22;2803;47.916;8.074;2022-09-01T09:04:01;20.50;99.90
5560;DHT22;2803;47.916;8.074;2022-09-01T09:06:34;19.80;99.90
5560;DHT22;2803;47.916;8.074;2022-09-01T09:09:03;19.80;99.90
5560;DHT22;2803;47.916;8.074;2022-09-01T09:11:40;19.90;99.90
5560;DHT22;2803;47.916;8.074;2022-09-01T09:14:15;20.20;99.90
5560;DHT22;2803;47.916;8.074;2022-09-01T09:16:46;20.30;99.90
5560;DHT22;2803;47.916;8.074;2022-09-01T09:19:20;20.20;99.90
5560;DHT22;2803;47.916;8.074;2022-09-01T09:21:48;20.00;99.90
5560;DHT22;2803;47.916;8.074;2022-09-01T09:24:20;20.10;99.90
5560;DHT22;2803;47.916;8.074;2022-09-01T09:26:49;20.60;99.90
5560;DHT22;2803;47.916;8.074;2022-09-01T09:29:17;20.40;99.90
5560;DHT22;2803;47.916;8.074;2022-09-01T09:31:46;20.90;99.90
5560;DHT22;2803;47.916;8.074;2022-09-01T09:34:16;21.40;99.90
5560;DHT22;2803;47.916;8.074;2022-09-01T09:36:43;21.40;99.90
5560;DHT22;2803;47.916;8.074;2022-09-01T09:39:13;21.70;99.90
5560;DHT22;2803;47.916;8.074;2022-09-01T09:41:43;21.50;99.90
5560;DHT22;2803;47.916;8.074;2022-09-01T09:44:20;21.10;99.90
5560;DHT22;2803;47.916;8.074;2022-09-01T09:46:52;21.00;99.90
5560;DHT22;2803;47.916;8.074;2022-09-01T09:49:20;22.10;99.90
5560;DHT22;2803;47.916;8.074;2022-09-01T09:51:51;23.10;99.90
5560;DHT22;2803;47.916;8.074;2022-09-01T09:54:21;22.90;99.90
5560;DHT22;2803;47.916;8.074;2022-09-01T09:57:02;23.60;99.90
5560;DHT22;2803;47.916;8.074;2022-09-01T09:59:32;23.30;99.90
5560;DHT22;2803;47.916;8.074;2022-09-01T10:02:15;23.70;99.90
5560;DHT22;2803;47.916;8.074;2022-09-01T10:04:45;23.70;99.90
5560;DHT22;2803;47.916;8.074;2022-09-01T10:07:28;23.20;99.90
5560;DHT22;2803;47.916;8.074;2022-09-01T10:09:57;23.40;99.90
5560;DHT22;2803;47.916;8.074;2022-09-01T10:12:27;23.70;99.90
5560;DHT22;2803;47.916;8.074;2022-09-01T10:14:57;23.80;99.90
5560;DHT22;2803;47.916;8.074;2022-09-01T10:17:31;24.00;99.90
5560;DHT22;2803;47.916;8.074;2022-09-01T10:20:03;24.80;99.90
5560;DHT22;2803;47.916;8.074;2022-09-01T10:22:32;25.00;99.90
5560;DHT22;2803;47.916;8.074;2022-09-01T10:25:00;25.10;99.20
5560;DHT22;2803;47.916;8.074;2022-09-01T10:27:29;25.70;98.60
5560;DHT22;2803;47.916;8.074;2022-09-01T10:30:04;25.90;98.30
5560;DHT22;2803;47.916;8.074;2022-09-01T10:32:35;26.80;97.60
5560;DHT22;2803;47.916;8.074;2022-09-01T10:35:07;26.70;95.50
5560;DHT22;2803;47.916;8.074;2022-09-01T10:37:36;25.50;96.50
5560;DHT22;2803;47.916;8.074;2022-09-01T10:40:33;25.60;96.40
5560;DHT22;2803;47.916;8.074;2022-09-01T10:43:26;26.40;96.10
5560;DHT22;2803;47.916;8.074;2022-09-01T10:45:55;26.50;94.30
5560;DHT22;2803;47.916;8.074;2022-09-01T10:48:23;27.00;94.70
5560;DHT22;2803;47.916;8.074;2022-09-01T10:50:52;27.40;94.10
5560;DHT22;2803;47.916;8.074;2022-09-01T10:53:36;27.60;93.00
5560;DHT22;2803;47.916;8.074;2022-09-01T10:56:06;28.00;92.80
5560;DHT22;2803;47.916;8.074;2022-09-01T10:58:55;27.10;92.60
5560;DHT22;2803;47.916;8.074;2022-09-01T11:04:23;26.10;93.20
5560;DHT22;2803;47.916;8.074;2022-09-01T11:07:29;27.00;92.90
5560;DHT22;2803;47.916;8.074;2022-09-01T11:13:23;26.70;92.30
5560;DHT22;2803;47.916;8.074;2022-09-01T11:15:55;27.00;91.80
5560;DHT22;2803;47.916;8.074;2022-09-01T11:18:25;27.90;90.90
5560;DHT22;2803;47.916;8.074;2022-09-01T11:20:52;27.10;90.80
5560;DHT22;2803;47.916;8.074;2022-09-01T11:23:22;27.20;91.20
5560;DHT22;2803;47.916;8.074;2022-09-01T11:25:50;26.70;91.00
5560;DHT22;2803;47.916;8.074;2022-09-01T11:28:36;25.80;92.50
5560;DHT22;2803;47.916;8.074;2022-09-01T11:34:10;27.00;91.80
5560;DHT22;2803;47.916;8.074;2022-09-01T11:39:32;27.60;90.40
5560;DHT22;2803;47.916;8.074;2022-09-01T11:42:04;27.70;89.50
5560;DHT22;2803;47.916;8.074;2022-09-01T11:44:37;28.10;91.00
5560;DHT22;2803;47.916;8.074;2022-09-01T11:47:10;29.40;88.80
5560;DHT22;2803;47.916;8.074;2022-09-01T11:49:48;28.70;89.40
5560;DHT22;2803;47.916;8.074;2022-09-01T11:52:16;28.40;90.10
5560;DHT22;2803;47.916;8.074;2022-09-01T11:54:43;28.80;87.20
5560;DHT22;2803;47.916;8.074;2022-09-01T11:57:23;28.00;88.00
5560;DHT22;2803;47.916;8.074;2022-09-01T11:59:50;27.30;90.50
5560;DHT22;2803;47.916;8.074;2022-09-01T12:02:21;26.60;90.90
5560;DHT22;2803;47.916;8.074;2022-09-01T12:04:50;26.50;90.50
5560;DHT22;2803;47.916;8.074;2022-09-01T12:07:36;27.20;91.00
5560;DHT22;2803;47.916;8.074;2022-09-01T12:10:11;27.80;90.40
5560;DHT22;2803;47.916;8.074;2022-09-01T12:12:39;27.80;88.00
5560;DHT22;2803;47.916;8.074;2022-09-01T12:15:10;27.70;87.80
5560;DHT22;2803;47.916;8.074;2022-09-01T12:17:43;27.60;88.40
5560;DHT22;2803;47.916;8.074;2022-09-01T12:20:26;28.80;86.70
5560;DHT22;2803;47.916;8.074;2022-09-01T12:22:54;28.70;85.30
5560;DHT22;2803;47.916;8.074;2022-09-01T12:25:22;29.20;85.40
5560;DHT22;2803;47.916;8.074;2022-09-01T12:27:50;29.20;83.90
5560;DHT22;2803;47.916;8.074;2022-09-01T12:30:25;27.70;86.60
5560;DHT22;2803;47.916;8.074;2022-09-01T12:32:53;26.20;90.60
5560;DHT22;2803;47.916;8.074;2022-09-01T12:35:23;26.30;87.90
5560;DHT22;2803;47.916;8.074;2022-09-01T12:37:50;26.10;90.10
5560;DHT22;2803;47.916;8.074;2022-09-01T12:40:23;26.60;89.90
5560;DHT22;2803;47.916;8.074;2022-09-01T12:42:51;27.10;88.80
5560;DHT22;2803;47.916;8.074;2022-09-01T12:45:35;27.00;88.40
5560;DHT22;2803;47.916;8.074;2022-09-01T12:48:03;26.10;91.30
5560;DHT22;2803;47.916;8.074;2022-09-01T12:50:35;25.50;92.40
5560;DHT22;2803;47.916;8.074;2022-09-01T12:53:03;25.30;92.50
5560;DHT22;2803;47.916;8.074;2022-09-01T12:55:39;24.50;93.30
5560;DHT22;2803;47.916;8.074;2022-09-01T12:58:07;24.90;92.70
5560;DHT22;2803;47.916;8.074;2022-09-01T13:00:37;24.80;92.00
5560;DHT22;2803;47.916;8.074;2022-09-01T13:03:21;24.80;92.40
5560;DHT22;2803;47.916;8.074;2022-09-01T13:05:49;25.70;91.80
5560;DHT22;2803;47.916;8.074;2022-09-01T13:08:18;26.30;91.10
5560;DHT22;2803;47.916;8.074;2022-09-01T13:10:47;26.60;91.60
5560;DHT22;2803;47.916;8.074;2022-09-01T13:13:15;26.60;90.60
5560;DHT22;2803;47.916;8.074;2022-09-01T13:15:44;26.30;89.30
5560;DHT22;2803;47.916;8.074;2022-09-01T13:18:12;27.10;87.50
5560;DHT22;2803;47.916;8.074;2022-09-01T13:20:40;26.50;89.90
5560;DHT22;2803;47.916;8.074;2022-09-01T13:23:07;26.90;88.90
5560;DHT22;2803;47.916;8.074;2022-09-01T13:25:36;26.90;88.60
5560;DHT22;2803;47.916;8.074;2022-09-01T13:28:04;25.80;90.40
5560;DHT22;2803;47.916;8.074;2022-09-01T13:30:32;25.40;90.40
5560;DHT22;2803;47.916;8.074;2022-09-01T13:32:59;25.20;91.80
5560;DHT22;2803;47.916;8.074;2022-09-01T13:35:26;24.80;92.20
5560;DHT22;2803;47.916;8.074;2022-09-01T13:37:54;25.00;91.50
5560;DHT22;2803;47.916;8.074;2022-09-01T13:40:21;24.80;91.50
5560;DHT22;2803;47.916;8.074;2022-09-01T13:42:50;24.70;92.20
5560;DHT22;2803;47.916;8.074;2022-09-01T13:45:18;25.10;91.90
5560;DHT22;2803;47.916;8.074;2022-09-01T13:47:46;24.40;92.00
5560;DHT22;2803;47.916;8.074;2022-09-01T13:50:15;24.20;92.70
5560;DHT22;2803;47.916;8.074;2022-09-01T13:52:44;24.20;92.60
5560;DHT22;2803;47.916;8.074;2022-09-01T13:55:14;24.30;92.80
5560;DHT22;2803;47.916;8.074;2022-09-01T13:57:41;24.30;93.20
5560;DHT22;2803;47.916;8.074;2022-09-01T14:00:10;23.70;94.10
5560;DHT22;2803;47.916;8.074;2022-09-01T14:02:38;23.30;94.70
5560;DHT22;2803;47.916;8.074;2022-09-01T14:05:05;23.60;94.00
5560;DHT22;2803;47.916;8.074;2022-09-01T14:07:32;23.40;93.50
5560;DHT22;2803;47.916;8.074;2022-09-01T14:09:58;23.20;93.90
5560;DHT22;2803;47.916;8.074;2022-09-01T14:12:27;22.90;94.20
5560;DHT22;2803;47.916;8.074;2022-09-01T14:14:54;23.10;94.60
5560;DHT22;2803;47.916;8.074;2022-09-01T14:17:21;23.20;94.90
5560;DHT22;2803;47.916;8.074;2022-09-01T14:19:48;23.60;94.40
5560;DHT22;2803;47.916;8.074;2022-09-01T14:22:15;23.70;95.00
5560;DHT22;2803;47.916;8.074;2022-09-01T14:24:42;23.60;94.90
5560;DHT22;2803;47.916;8.074;2022-09-01T14:27:08;23.40;94.60
5560;DHT22;2803;47.916;8.074;2022-09-01T14:29:36;23.20;95.30
5560;DHT22;2803;47.916;8.074;2022-09-01T14:32:03;23.00;94.70
5560;DHT22;2803;47.916;8.074;2022-09-01T14:34:32;22.90;94.40
5560;DHT22;2803;47.916;8.074;2022-09-01T14:36:58;22.70;94.30
5560;DHT22;2803;47.916;8.074;2022-09-01T14:39:25;23.20;94.60
5560;DHT22;2803;47.916;8.074;2022-09-01T14:41:52;23.50;94.30
5560;DHT22;2803;47.916;8.074;2022-09-01T14:44:19;23.40;94.90
5560;DHT22;2803;47.916;8.074;2022-09-01T14:46:47;23.30;94.60
5560;DHT22;2803;47.916;8.074;2022-09-01T14:49:14;23.00;95.20
5560;DHT22;2803;47.916;8.074;2022-09-01T14:51:41;22.90;95.80
5560;DHT22;2803;47.916;8.074;2022-09-01T14:54:08;22.60;96.10
5560;DHT22;2803;47.916;8.074;2022-09-01T14:56:34;22.40;96.30
5560;DHT22;2803;47.916;8.074;2022-09-01T14:59:01;22.00;96.60
5560;DHT22;2803;47.916;8.074;2022-09-01T15:01:27;22.20;96.50
5560;DHT22;2803;47.916;8.074;2022-09-01T15:03:55;22.50;96.70
5560;DHT22;2803;47.916;8.074;2022-09-01T15:06:22;22.80;97.00
5560;DHT22;2803;47.916;8.074;2022-09-01T15:08:49;23.40;96.00
5560;DHT22;2803;47.916;8.074;2022-09-01T15:11:17;23.50;95.90
5560;DHT22;2803;47.916;8.074;2022-09-01T15:13:45;23.20;96.40
5560;DHT22;2803;47.916;8.074;2022-09-01T15:16:18;23.60;96.00
5560;DHT22;2803;47.916;8.074;2022-09-01T15:18:46;23.80;95.60
5560;DHT22;2803;47.916;8.074;2022-09-01T15:21:19;24.40;94.90
5560;DHT22;2803;47.916;8.074;2022-09-01T15:23:46;24.50;94.30
5560;DHT22;2803;47.916;8.074;2022-09-01T15:26:15;25.00;94.10
5560;DHT22;2803;47.916;8.074;2022-09-01T15:28:42;25.60;93.60
5560;DHT22;2803;47.916;8.074;2022-09-01T15:31:08;26.20;92.70
5560;DHT22;2803;47.916;8.074;2022-09-01T15:33:37;26.40;91.90
5560;DHT22;2803;47.916;8.074;2022-09-01T15:36:04;25.80;91.70
5560;DHT22;2803;47.916;8.074;2022-09-01T15:38:32;25.90;91.90
5560;DHT22;2803;47.916;8.074;2022-09-01T15:40:58;25.50;92.50
5560;DHT22;2803;47.916;8.074;2022-09-01T15:43:26;24.30;94.00
5560;DHT22;2803;47.916;8.074;2022-09-01T15:45:53;24.50;94.20
5560;DHT22;2803;47.916;8.074;2022-09-01T15:48:22;24.10;94.60
5560;DHT22;2803;47.916;8.074;2022-09-01T15:50:49;23.80;94.80
5560;DHT22;2803;47.916;8.074;2022-09-01T15:53:15;24.30;94.40
5560;DHT22;2803;47.916;8.074;2022-09-01T15:55:46;24.60;93.90
5560;DHT22;2803;47.916;8.074;2022-09-01T15:58:17;24.60;94.00
5560;DHT22;2803;47.916;8.074;2022-09-01T16:00:44;24.30;94.40
5560;DHT22;2803;47.916;8.074;2022-09-01T16:03:11;24.80;94.30
5560;DHT22;2803;47.916;8.074;2022-09-01T16:05:39;24.60;94.30
5560;DHT22;2803;47.916;8.074;2022-09-01T16:08:06;23.40;94.30
5560;DHT22;2803;47.916;8.074;2022-09-01T16:10:34;23.10;94.80
5560;DHT22;2803;47.916;8.074;2022-09-01T16:13:05;23.00;95.30
5560;DHT22;2803;47.916;8.074;2022-09-01T16:15:32;23.00;95.50
5560;DHT22;2803;47.916;8.074;2022-09-01T16:18:11;23.20;95.70
5560;DHT22;2803;47.916;8.074;2022-09-01T16:20:49;23.40;95.40
5560;DHT22;2803;47.916;8.074;2022-09-01T16:23:20;23.20;95.80
5560;DHT22;2803;47.916;8.074;2022-09-01T16:25:48;23.10;96.00
5560;DHT22;2803;47.916;8.074;2022-09-01T16:28:23;22.90;96.10